sensor_id;sensor_type;location;lat;lon;timestamp;pressure;altitude;pressure_sealevel;temperature;humidity
42411;BME280;28056;51.112;0.984;2023-02-18T00:01:23;101452.54;;;12.54;71.32
42411;BME280;28056;51.112;0.984;2023-02-18T00:03:51;101447.10;;;13.23;69.29
42411;BME280;28056;51.112;0.984;2023-02-18T00:06:20;101440.44;;;13.04;67.12
42411;BME280;28056;51.112;0.984;2023-02-18T00:08:49;101431.22;;;12.89;68.30
42411;BME280;28056;51.112;0.984;2023-02-18T00:11:18;101434.13;;;13.52;67.33
42411;BME280;28056;51.112;0.984;2023-02-18T00:13:49;101431.23;;;12.78;67.91
42411;BME280;28056;51.112;0.984;2023-02-18T00:16:17;101438.64;;;12.25;69.83
42411;BME280;28056;51.112;0.984;2023-02-18T00:18:44;101432.08;;;12.38;70.54
42411;BME280;28056;51.112;0.984;2023-02-18T00:21:12;101436.48;;;11.45;72.73
42411;BME280;28056;51.112;0.984;2023-02-18T00:23:40;101445.18;;;10.99;74.19
42411;BME280;28056;51.112;0.984;2023-02-18T00:26:11;101435.56;;;10.32;76.92
42411;BME280;28056;51.112;0.984;2023-02-18T00:28:40;101443.29;;;9.00;84.62
42411;BME280;28056;51.112;0.984;2023-02-18T00:31:09;101437.50;;;9.68;82.56
42411;BME280;28056;51.112;0.984;2023-02-18T00:33:37;101431.36;;;8.46;88.07
42411;BME280;28056;51.112;0.984;2023-02-18T00:36:07;101432.02;;;8.89;88.69
42411;BME280;28056;51.112;0.984;2023-02-18T00:38:35;101429.25;;;8.38;88.91
42411;BME280;28056;51.112;0.984;2023-02-18T00:41:03;101433.02;;;9.32;87.41
42411;BME280;28056;51.112;0.984;2023-02-18T00:43:30;101433.31;;;8.75;90.03
42411;BME280;28056;51.112;0.984;2023-02-18T00:45:58;101435.03;;;8.91;88.14
42411;BME280;28056;51.112;0.984;2023-02-18T00:48:25;101428.76;;;7.74;92.65
42411;BME280;28056;51.112;0.984;2023-02-18T00:50:53;101427.48;;;9.37;87.09
42411;BME280;28056;51.112;0.984;2023-02-18T00:53:21;101427.31;;;8.14;90.86
42411;BME280;28056;51.112;0.984;2023-02-18T00:55:48;101428.32;;;8.89;88.64
42411;BME280;28056;51.112;0.984;2023-02-18T00:58:15;101426.03;;;8.67;88.42
42411;BME280;28056;51.112;0.984;2023-02-18T01:00:43;101427.98;;;9.31;87.03
42411;BME280;28056;51.112;0.984;2023-02-18T01:04:53;101418.58;;;8.72;88.02
42411;BME280;28056;51.112;0.984;2023-02-18T01:07:20;101416.52;;;8.99;87.40
42411;BME280;28056;51.112;0.984;2023-02-18T01:09:48;101412.79;;;8.48;90.00
42411;BME280;28056;51.112;0.984;2023-02-18T01:12:16;101423.55;;;8.41;89.23
42411;BME280;28056;51.112;0.984;2023-02-18T01:14:44;101417.98;;;8.21;90.35
42411;BME280;28056;51.112;0.984;2023-02-18T01:17:12;101414.16;;;8.64;89.93
42411;BME280;28056;51.112;0.984;2023-02-18T01:19:39;101413.49;;;9.28;88.38
42411;BME280;28056;51.112;0.984;2023-02-18T01:22:06;101407.98;;;9.07;88.27
42411;BME280;28056;51.112;0.984;2023-02-18T01:24:33;101412.51;;;8.84;86.80
42411;BME280;28056;51.112;0.984;2023-02-18T01:27:01;101404.03;;;9.11;87.79
42411;BME280;28056;51.112;0.984;2023-02-18T01:29:28;101414.98;;;8.25;92.58
42411;BME280;28056;51.112;0.984;2023-02-18T01:31:56;101412.93;;;8.22;92.09
42411;BME280;28056;51.112;0.984;2023-02-18T01:34:24;101415.84;;;8.36;93.08
42411;BME280;28056;51.112;0.984;2023-02-18T01:36:51;101410.46;;;8.72;89.89
42411;BME280;28056;51.112;0.984;2023-02-18T01:39:18;101401.65;;;8.30;91.66
42411;BME280;28056;51.112;0.984;2023-02-18T01:41:46;101401.96;;;8.28;92.74
42411;BME280;28056;51.112;0.984;2023-02-18T01:44:16;101404.13;;;8.64;90.28
42411;BME280;28056;51.112;0.984;2023-02-18T01:46:44;101406.14;;;9.90;85.07
42411;BME280;28056;51.112;0.984;2023-02-18T01:49:15;101399.62;;;10.48;82.24
42411;BME280;28056;51.112;0.984;2023-02-18T01:51:47;101406.31;;;10.29;82.74
42411;BME280;28056;51.112;0.984;2023-02-18T01:54:20;101409.28;;;10.56;81.04
42411;BME280;28056;51.112;0.984;2023-02-18T01:56:51;101408.58;;;10.55;80.32
42411;BME280;28056;51.112;0.984;2023-02-18T01:59:24;101408.55;;;11.14;77.93
42411;BME280;28056;51.112;0.984;2023-02-18T02:01:53;101405.60;;;10.90;78.77
42411;BME280;28056;51.112;0.984;2023-02-18T02:04:21;101408.58;;;10.99;78.35
42411;BME280;28056;51.112;0.984;2023-02-18T02:06:48;101397.27;;;10.69;78.24
42411;BME280;28056;51.112;0.984;2023-02-18T02:09:18;101406.89;;;10.70;79.30
42411;BME280;28056;51.112;0.984;2023-02-18T02:12:00;101409.71;;;10.61;81.42
42411;BME280;28056;51.112;0.984;2023-02-18T02:14:45;101411.89;;;10.49;79.97
42411;BME280;28056;51.112;0.984;2023-02-18T02:17:21;101411.20;;;9.80;82.65
42411;BME280;28056;51.112;0.984;2023-02-18T02:23:37;101404.63;;;10.48;81.00
42411;BME280;28056;51.112;0.984;2023-02-18T02:27:28;101397.87;;;10.55;78.56
42411;BME280;28056;51.112;0.984;2023-02-18T02:30:24;101380.89;;;11.44;75.49
42411;BME280;28056;51.112;0.984;2023-02-18T02:33:45;101377.66;;;11.38;76.59
42411;BME280;28056;51.112;0.984;2023-02-18T02:36:19;101375.54;;;12.19;73.04
42411;BME280;28056;51.112;0.984;2023-02-18T02:38:54;101371.03;;;11.84;74.82
42411;BME280;28056;51.112;0.984;2023-02-18T02:41:38;101363.70;;;11.60;73.65
42411;BME280;28056;51.112;0.984;2023-02-18T02:44:19;101365.26;;;12.06;72.48
42411;BME280;28056;51.112;0.984;2023-02-18T02:46:50;101371.70;;;12.35;72.25
42411;BME280;28056;51.112;0.984;2023-02-18T02:49:29;101366.87;;;12.34;70.05
42411;BME280;28056;51.112;0.984;2023-02-18T02:52:03;101353.76;;;12.24;69.93
42411;BME280;28056;51.112;0.984;2023-02-18T02:54:32;101348.30;;;12.60;70.20
42411;BME280;28056;51.112;0.984;2023-02-18T02:57:06;101344.47;;;12.51;69.45
42411;BME280;28056;51.112;0.984;2023-02-18T02:59:36;101345.13;;;12.36;71.02
42411;BME280;28056;51.112;0.984;2023-02-18T03:02:16;101335.56;;;11.85;70.93
42411;BME280;28056;51.112;0.984;2023-02-18T03:05:03;101333.81;;;11.07;74.35
42411;BME280;28056;51.112;0.984;2023-02-18T03:07:50;101325.01;;;11.59;72.95
42411;BME280;28056;51.112;0.984;2023-02-18T03:10:33;101326.53;;;11.11;72.94
42411;BME280;28056;51.112;0.984;2023-02-18T03:13:09;101319.32;;;11.89;70.86
42411;BME280;28056;51.112;0.984;2023-02-18T03:15:48;101321.01;;;10.15;75.74
42411;BME280;28056;51.112;0.984;2023-02-18T03:18:23;101308.31;;;10.91;75.50
42411;BME280;28056;51.112;0.984;2023-02-18T03:20:57;101307.75;;;10.84;74.20
42411;BME280;28056;51.112;0.984;2023-02-18T03:23:32;101310.51;;;10.65;74.99
42411;BME280;28056;51.112;0.984;2023-02-18T03:26:03;101299.45;;;10.85;73.50
42411;BME280;28056;51.112;0.984;2023-02-18T03:28:33;101288.07;;;10.99;73.17
42411;BME280;28056;51.112;0.984;2023-02-18T03:31:06;101289.34;;;11.48;71.12
42411;BME280;28056;51.112;0.984;2023-02-18T03:33:36;101274.34;;;11.38;71.54
42411;BME280;28056;51.112;0.984;2023-02-18T03:36:07;101263.03;;;11.59;71.14
42411;BME280;28056;51.112;0.984;2023-02-18T03:38:38;101277.67;;;9.91;74.31
42411;BME280;28056;51.112;0.984;2023-02-18T03:41:06;101283.88;;;10.28;74.57
42411;BME280;28056;51.112;0.984;2023-02-18T03:43:33;101286.00;;;10.39;73.18
42411;BME280;28056;51.112;0.984;2023-02-18T03:46:01;101287.51;;;10.36;72.53
42411;BME280;28056;51.112;0.984;2023-02-18T03:48:29;101284.38;;;9.81;73.89
42411;BME280;28056;51.112;0.984;2023-02-18T03:50:56;101288.68;;;9.99;74.22
42411;BME280;28056;51.112;0.984;2023-02-18T03:53:24;101278.58;;;10.17;72.91
42411;BME280;28056;51.112;0.984;2023-02-18T03:55:52;101275.45;;;10.73;72.20
42411;BME280;28056;51.112;0.984;2023-02-18T03:58:19;101280.06;;;10.95;69.89
42411;BME280;28056;51.112;0.984;2023-02-18T04:00:47;101283.85;;;10.72;69.89
42411;BME280;28056;51.112;0.984;2023-02-18T04:03:15;101282.91;;;10.57;71.76
42411;BME280;28056;51.112;0.984;2023-02-18T04:05:41;101285.23;;;11.27;68.81
42411;BME280;28056;51.112;0.984;2023-02-18T04:08:09;101289.67;;;9.45;73.90
42411;BME280;28056;51.112;0.984;2023-02-18T04:10:37;101287.46;;;10.56;70.72
42411;BME280;28056;51.112;0.984;2023-02-18T04:13:05;101275.04;;;10.72;70.23
42411;BME280;28056;51.112;0.984;2023-02-18T04:15:32;101275.11;;;11.22;69.15
42411;BME280;28056;51.112;0.984;2023-02-18T04:17:59;101282.00;;;10.76;68.92
42411;BME280;28056;51.112;0.984;2023-02-18T04:20:26;101286.52;;;10.64;71.14
42411;BME280;28056;51.112;0.984;2023-02-18T04:22:54;101290.35;;;10.33;70.69
42411;BME280;28056;51.112;0.984;2023-02-18T04:25:22;101289.67;;;10.88;68.21
42411;BME280;28056;51.112;0.984;2023-02-18T04:27:50;101284.60;;;9.78;69.54
42411;BME280;28056;51.112;0.984;2023-02-18T04:30:18;101276.73;;;10.65;68.11
42411;BME280;28056;51.112;0.984;2023-02-18T04:32:46;101282.84;;;11.23;67.83
42411;BME280;28056;51.112;0.984;2023-02-18T04:35:13;101290.30;;;10.34;68.36
42411;BME280;28056;51.112;0.984;2023-02-18T04:37:41;101287.47;;;9.16;71.68
42411;BME280;28056;51.112;0.984;2023-02-18T04:40:10;101280.34;;;8.76;72.64
42411;BME280;28056;51.112;0.984;2023-02-18T04:42:37;101282.15;;;10.44;70.16
42411;BME280;28056;51.112;0.984;2023-02-18T04:45:05;101286.83;;;10.08;69.94
42411;BME280;28056;51.112;0.984;2023-02-18T04:47:33;101273.51;;;10.38;71.07
42411;BME280;28056;51.112;0.984;2023-02-18T04:50:00;101262.28;;;10.77;68.05
42411;BME280;28056;51.112;0.984;2023-02-18T04:52:27;101266.62;;;9.70;70.40
42411;BME280;28056;51.112;0.984;2023-02-18T04:54:55;101272.51;;;10.00;71.25
42411;BME280;28056;51.112;0.984;2023-02-18T04:57:23;101271.53;;;10.42;69.77
42411;BME280;28056;51.112;0.984;2023-02-18T04:59:51;101269.69;;;9.62;70.37
42411;BME280;28056;51.112;0.984;2023-02-18T05:02:19;101269.73;;;9.68;70.71
42411;BME280;28056;51.112;0.984;2023-02-18T05:04:46;101266.11;;;10.14;69.23
42411;BME280;28056;51.112;0.984;2023-02-18T05:07:14;101263.53;;;9.82;69.79
42411;BME280;28056;51.112;0.984;2023-02-18T05:09:41;101260.49;;;9.80;69.93
42411;BME280;28056;51.112;0.984;2023-02-18T05:12:09;101273.46;;;9.89;70.41
42411;BME280;28056;51.112;0.984;2023-02-18T05:14:37;101255.06;;;9.96;69.17
42411;BME280;28056;51.112;0.984;2023-02-18T05:17:04;101264.12;;;9.66;69.39
42411;BME280;28056;51.112;0.984;2023-02-18T05:19:31;101266.77;;;9.70;70.56
42411;BME280;28056;51.112;0.984;2023-02-18T05:21:59;101258.58;;;10.12;68.85
42411;BME280;28056;51.112;0.984;2023-02-18T05:24:27;101270.45;;;10.27;67.27
42411;BME280;28056;51.112;0.984;2023-02-18T05:26:54;101259.19;;;10.27;67.59
42411;BME280;28056;51.112;0.984;2023-02-18T05:29:21;101263.46;;;10.09;67.30
42411;BME280;28056;51.112;0.984;2023-02-18T05:31:48;101259.45;;;10.37;66.94
42411;BME280;28056;51.112;0.984;2023-02-18T05:34:15;101254.05;;;9.30;68.66
42411;BME280;28056;51.112;0.984;2023-02-18T05:36:43;101252.83;;;9.88;68.23
42411;BME280;28056;51.112;0.984;2023-02-18T05:39:10;101244.38;;;10.27;66.70
42411;BME280;28056;51.112;0.984;2023-02-18T05:41:37;101246.82;;;10.27;66.39
42411;BME280;28056;51.112;0.984;2023-02-18T05:44:04;101232.86;;;10.95;65.33
42411;BME280;28056;51.112;0.984;2023-02-18T05:46:32;101232.91;;;11.06;64.17
42411;BME280;28056;51.112;0.984;2023-02-18T05:48:59;101234.20;;;10.62;64.63
42411;BME280;28056;51.112;0.984;2023-02-18T05:51:27;101235.94;;;10.91;62.59
42411;BME280;28056;51.112;0.984;2023-02-18T05:53:55;101229.78;;;10.81;63.65
42411;BME280;28056;51.112;0.984;2023-02-18T05:56:22;101228.91;;;11.10;64.13
42411;BME280;28056;51.112;0.984;2023-02-18T05:58:50;101231.60;;;11.23;63.73
42411;BME280;28056;51.112;0.984;2023-02-18T06:01:17;101224.01;;;10.79;64.05
42411;BME280;28056;51.112;0.984;2023-02-18T06:03:45;101226.38;;;11.23;63.28
42411;BME280;28056;51.112;0.984;2023-02-18T06:06:13;101230.73;;;11.12;62.99
42411;BME280;28056;51.112;0.984;2023-02-18T06:08:41;101222.99;;;11.19;62.29
42411;BME280;28056;51.112;0.984;2023-02-18T06:11:08;101219.94;;;10.78;63.52
42411;BME280;28056;51.112;0.984;2023-02-18T06:13:35;101227.66;;;10.83;65.05
42411;BME280;28056;51.112;0.984;2023-02-18T06:16:04;101231.39;;;10.98;64.62
42411;BME280;28056;51.112;0.984;2023-02-18T06:18:31;101227.92;;;11.36;63.28
42411;BME280;28056;51.112;0.984;2023-02-18T06:20:58;101230.39;;;10.25;66.08
42411;BME280;28056;51.112;0.984;2023-02-18T06:23:26;101231.49;;;10.98;64.32
42411;BME280;28056;51.112;0.984;2023-02-18T06:25:53;101231.52;;;10.79;64.38
42411;BME280;28056;51.112;0.984;2023-02-18T06:28:21;101235.96;;;10.75;64.13
42411;BME280;28056;51.112;0.984;2023-02-18T06:30:49;101237.74;;;10.54;64.69
42411;BME280;28056;51.112;0.984;2023-02-18T06:33:17;101221.81;;;10.96;65.76
42411;BME280;28056;51.112;0.984;2023-02-18T06:35:53;101229.28;;;10.99;65.12
42411;BME280;28056;51.112;0.984;2023-02-18T06:38:21;101233.89;;;10.22;67.25
42411;BME280;28056;51.112;0.984;2023-02-18T06:40:49;101233.74;;;10.68;65.85
42411;BME280;28056;51.112;0.984;2023-02-18T06:43:17;101246.20;;;9.05;70.39
42411;BME280;28056;51.112;0.984;2023-02-18T06:45:45;101232.70;;;10.19;68.18
42411;BME280;28056;51.112;0.984;2023-02-18T06:48:13;101235.08;;;10.23;66.67
42411;BME280;28056;51.112;0.984;2023-02-18T06:50:41;101227.52;;;10.75;65.81
42411;BME280;28056;51.112;0.984;2023-02-18T06:53:08;101241.08;;;8.40;72.60
42411;BME280;28056;51.112;0.984;2023-02-18T06:55:37;101231.91;;;7.05;78.65
42411;BME280;28056;51.112;0.984;2023-02-18T06:58:05;101231.99;;;7.65;78.74
42411;BME280;28056;51.112;0.984;2023-02-18T07:00:33;101235.21;;;7.55;80.27
42411;BME280;28056;51.112;0.984;2023-02-18T07:03:00;101235.63;;;7.41;82.01
42411;BME280;28056;51.112;0.984;2023-02-18T07:05:28;101240.01;;;7.77;81.69
42411;BME280;28056;51.112;0.984;2023-02-18T07:07:57;101239.05;;;6.57;85.48
42411;BME280;28056;51.112;0.984;2023-02-18T07:10:24;101240.99;;;7.88;81.06
42411;BME280;28056;51.112;0.984;2023-02-18T07:12:52;101233.94;;;7.49;82.30
42411;BME280;28056;51.112;0.984;2023-02-18T07:15:19;101232.93;;;6.91;83.84
42411;BME280;28056;51.112;0.984;2023-02-18T07:17:46;101237.14;;;7.06;84.45
42411;BME280;28056;51.112;0.984;2023-02-18T07:20:13;101234.52;;;8.05;81.69
42411;BME280;28056;51.112;0.984;2023-02-18T07:22:41;101224.73;;;7.76;82.39
42411;BME280;28056;51.112;0.984;2023-02-18T07:25:08;101225.13;;;7.46;83.05
42411;BME280;28056;51.112;0.984;2023-02-18T07:27:35;101224.02;;;7.98;82.31
42411;BME280;28056;51.112;0.984;2023-02-18T07:30:03;101227.11;;;7.24;83.38
42411;BME280;28056;51.112;0.984;2023-02-18T07:32:30;101226.09;;;7.43;83.36
42411;BME280;28056;51.112;0.984;2023-02-18T07:34:57;101233.37;;;7.93;81.72
42411;BME280;28056;51.112;0.984;2023-02-18T07:37:24;101229.72;;;7.14;84.04
42411;BME280;28056;51.112;0.984;2023-02-18T07:39:51;101230.04;;;8.01;81.18
42411;BME280;28056;51.112;0.984;2023-02-18T07:42:19;101239.88;;;7.52;82.61
42411;BME280;28056;51.112;0.984;2023-02-18T07:44:47;101240.33;;;7.32;83.79
42411;BME280;28056;51.112;0.984;2023-02-18T07:47:15;101244.65;;;7.74;81.31
42411;BME280;28056;51.112;0.984;2023-02-18T07:49:43;101242.74;;;7.99;81.60
42411;BME280;28056;51.112;0.984;2023-02-18T07:52:10;101257.35;;;8.44;80.27
42411;BME280;28056;51.112;0.984;2023-02-18T07:54:38;101251.03;;;8.20;80.42
42411;BME280;28056;51.112;0.984;2023-02-18T07:57:06;101262.49;;;7.75;79.88
42411;BME280;28056;51.112;0.984;2023-02-18T07:59:34;101249.86;;;7.42;80.87
42411;BME280;28056;51.112;0.984;2023-02-18T08:02:01;101253.82;;;7.97;79.57
42411;BME280;28056;51.112;0.984;2023-02-18T08:04:29;101260.56;;;8.11;80.58
42411;BME280;28056;51.112;0.984;2023-02-18T08:06:57;101255.50;;;7.84;81.70
42411;BME280;28056;51.112;0.984;2023-02-18T08:09:24;101258.88;;;8.05;79.65
42411;BME280;28056;51.112;0.984;2023-02-18T08:11:51;101260.23;;;7.32;82.45
42411;BME280;28056;51.112;0.984;2023-02-18T08:14:18;101260.21;;;8.38;79.71
42411;BME280;28056;51.112;0.984;2023-02-18T08:16:45;101255.78;;;8.53;78.86
42411;BME280;28056;51.112;0.984;2023-02-18T08:19:12;101259.60;;;7.17;83.13
42411;BME280;28056;51.112;0.984;2023-02-18T08:21:40;101261.25;;;8.40;80.59
42411;BME280;28056;51.112;0.984;2023-02-18T08:24:07;101260.98;;;7.96;80.34
42411;BME280;28056;51.112;0.984;2023-02-18T08:26:34;101259.12;;;8.52;78.35
42411;BME280;28056;51.112;0.984;2023-02-18T08:29:02;101268.13;;;8.46;79.17
42411;BME280;28056;51.112;0.984;2023-02-18T08:31:30;101264.90;;;8.35;79.38
42411;BME280;28056;51.112;0.984;2023-02-18T08:33:58;101265.61;;;8.15;80.61
42411;BME280;28056;51.112;0.984;2023-02-18T08:36:26;101267.70;;;7.99;79.31
42411;BME280;28056;51.112;0.984;2023-02-18T08:38:53;101271.33;;;7.46;82.25
42411;BME280;28056;51.112;0.984;2023-02-18T08:41:21;101271.69;;;7.95;82.19
42411;BME280;28056;51.112;0.984;2023-02-18T08:43:49;101267.33;;;8.13;80.86
42411;BME280;28056;51.112;0.984;2023-02-18T08:46:16;101268.80;;;8.01;81.58
42411;BME280;28056;51.112;0.984;2023-02-18T08:48:44;101263.66;;;8.91;77.61
42411;BME280;28056;51.112;0.984;2023-02-18T08:51:13;101267.54;;;8.29;78.84
42411;BME280;28056;51.112;0.984;2023-02-18T08:53:42;101271.97;;;7.63;83.26
42411;BME280;28056;51.112;0.984;2023-02-18T08:56:09;101279.50;;;7.18;83.57
42411;BME280;28056;51.112;0.984;2023-02-18T08:58:36;101280.02;;;7.75;83.65
42411;BME280;28056;51.112;0.984;2023-02-18T09:01:07;101277.92;;;8.50;80.56
42411;BME280;28056;51.112;0.984;2023-02-18T09:03:35;101286.58;;;8.46;79.18
42411;BME280;28056;51.112;0.984;2023-02-18T09:06:04;101285.90;;;8.75;79.00
42411;BME280;28056;51.112;0.984;2023-02-18T09:08:31;101295.95;;;7.90;81.67
42411;BME280;28056;51.112;0.984;2023-02-18T09:11:01;101297.97;;;7.90;81.89
42411;BME280;28056;51.112;0.984;2023-02-18T09:13:29;101303.26;;;8.44;79.42
42411;BME280;28056;51.112;0.984;2023-02-18T09:15:58;101290.98;;;8.52;79.18
42411;BME280;28056;51.112;0.984;2023-02-18T09:18:26;101297.52;;;8.39;80.13
42411;BME280;28056;51.112;0.984;2023-02-18T09:20:55;101303.51;;;9.15;79.43
42411;BME280;28056;51.112;0.984;2023-02-18T09:23:24;101291.25;;;8.83;79.85
42411;BME280;28056;51.112;0.984;2023-02-18T09:25:51;101293.70;;;8.29;81.18
42411;BME280;28056;51.112;0.984;2023-02-18T09:28:19;101299.35;;;8.75;80.64
42411;BME280;28056;51.112;0.984;2023-02-18T09:30:46;101300.56;;;7.77;82.64
42411;BME280;28056;51.112;0.984;2023-02-18T09:33:15;101297.26;;;8.13;81.79
42411;BME280;28056;51.112;0.984;2023-02-18T09:35:44;101296.19;;;7.81;83.17
42411;BME280;28056;51.112;0.984;2023-02-18T09:38:14;101294.15;;;8.55;80.44
42411;BME280;28056;51.112;0.984;2023-02-18T09:40:45;101301.39;;;9.07;77.41
42411;BME280;28056;51.112;0.984;2023-02-18T09:43:22;101303.87;;;9.03;79.18
42411;BME280;28056;51.112;0.984;2023-02-18T09:45:52;101309.17;;;8.45;81.44
42411;BME280;28056;51.112;0.984;2023-02-18T09:48:24;101311.54;;;7.71;83.17
42411;BME280;28056;51.112;0.984;2023-02-18T09:50:52;101321.58;;;8.01;85.43
42411;BME280;28056;51.112;0.984;2023-02-18T09:53:21;101326.34;;;7.63;85.31
42411;BME280;28056;51.112;0.984;2023-02-18T09:55:50;101326.12;;;8.03;85.36
42411;BME280;28056;51.112;0.984;2023-02-18T09:58:20;101331.23;;;7.92;83.33
42411;BME280;28056;51.112;0.984;2023-02-18T10:00:50;101322.25;;;8.72;80.93
42411;BME280;28056;51.112;0.984;2023-02-18T10:03:20;101322.24;;;8.56;81.23
42411;BME280;28056;51.112;0.984;2023-02-18T10:05:56;101328.71;;;8.16;81.37
42411;BME280;28056;51.112;0.984;2023-02-18T10:08:26;101325.54;;;8.89;80.72
42411;BME280;28056;51.112;0.984;2023-02-18T10:10:55;101330.79;;;9.90;75.74
42411;BME280;28056;51.112;0.984;2023-02-18T10:13:25;101341.53;;;9.60;76.46
42411;BME280;28056;51.112;0.984;2023-02-18T10:15:54;101326.85;;;8.64;79.40
42411;BME280;28056;51.112;0.984;2023-02-18T10:18:26;101333.31;;;8.65;80.74
42411;BME280;28056;51.112;0.984;2023-02-18T10:21:02;101336.93;;;8.88;79.85
42411;BME280;28056;51.112;0.984;2023-02-18T10:23:33;101332.99;;;8.96;79.56
42411;BME280;28056;51.112;0.984;2023-02-18T10:26:04;101333.14;;;8.67;81.04
42411;BME280;28056;51.112;0.984;2023-02-18T10:28:34;101328.72;;;8.82;79.47
42411;BME280;28056;51.112;0.984;2023-02-18T10:31:06;101330.98;;;9.79;75.35
42411;BME280;28056;51.112;0.984;2023-02-18T10:33:37;101336.00;;;9.16;78.46
42411;BME280;28056;51.112;0.984;2023-02-18T10:36:21;101337.61;;;9.55;77.13
42411;BME280;28056;51.112;0.984;2023-02-18T10:39:35;101350.81;;;8.46;80.42
42411;BME280;28056;51.112;0.984;2023-02-18T10:42:17;101361.53;;;8.50;80.15
42411;BME280;28056;51.112;0.984;2023-02-18T10:44:57;101363.86;;;8.48;79.41
42411;BME280;28056;51.112;0.984;2023-02-18T10:47:36;101361.42;;;9.35;79.65
42411;BME280;28056;51.112;0.984;2023-02-18T10:50:10;101365.05;;;9.22;78.15
42411;BME280;28056;51.112;0.984;2023-02-18T10:52:42;101369.28;;;9.56;77.70
42411;BME280;28056;51.112;0.984;2023-02-18T10:55:12;101353.17;;;8.56;80.77
42411;BME280;28056;51.112;0.984;2023-02-18T10:57:49;101354.05;;;8.97;80.34
42411;BME280;28056;51.112;0.984;2023-02-18T11:00:20;101349.44;;;9.81;77.27
42411;BME280;28056;51.112;0.984;2023-02-18T11:03:01;101344.43;;;9.30;80.04
42411;BME280;28056;51.112;0.984;2023-02-18T11:05:34;101342.83;;;9.74;76.47
42411;BME280;28056;51.112;0.984;2023-02-18T11:08:08;101354.47;;;9.39;79.17
42411;BME280;28056;51.112;0.984;2023-02-18T11:10:39;101361.00;;;9.69;78.22
42411;BME280;28056;51.112;0.984;2023-02-18T11:13:10;101365.19;;;10.10;75.78
42411;BME280;28056;51.112;0.984;2023-02-18T11:15:53;101361.31;;;9.30;77.92
42411;BME280;28056;51.112;0.984;2023-02-18T11:18:29;101360.18;;;8.90;81.88
42411;BME280;28056;51.112;0.984;2023-02-18T11:21:01;101359.20;;;9.13;80.44
42411;BME280;28056;51.112;0.984;2023-02-18T11:23:31;101354.11;;;8.74;82.38
42411;BME280;28056;51.112;0.984;2023-02-18T11:26:01;101361.79;;;9.32;81.28
42411;BME280;28056;51.112;0.984;2023-02-18T11:28:41;101357.13;;;8.78;81.37
42411;BME280;28056;51.112;0.984;2023-02-18T11:31:16;101361.10;;;9.64;79.95
42411;BME280;28056;51.112;0.984;2023-02-18T11:33:49;101363.20;;;9.94;79.25
42411;BME280;28056;51.112;0.984;2023-02-18T11:36:21;101372.91;;;9.12;79.42
42411;BME280;28056;51.112;0.984;2023-02-18T11:38:52;101365.52;;;9.72;76.67
42411;BME280;28056;51.112;0.984;2023-02-18T11:41:29;101371.29;;;9.56;78.19
42411;BME280;28056;51.112;0.984;2023-02-18T11:43:58;101370.22;;;9.99;76.87
42411;BME280;28056;51.112;0.984;2023-02-18T11:46:27;101371.72;;;9.68;78.44
42411;BME280;28056;51.112;0.984;2023-02-18T11:48:55;101363.46;;;9.32;78.51
42411;BME280;28056;51.112;0.984;2023-02-18T11:51:26;101355.60;;;9.62;79.27
42411;BME280;28056;51.112;0.984;2023-02-18T11:53:56;101355.83;;;10.73;75.86
42411;BME280;28056;51.112;0.984;2023-02-18T11:56:24;101352.11;;;10.39;75.07
42411;BME280;28056;51.112;0.984;2023-02-18T11:58:52;101344.36;;;10.63;75.18
42411;BME280;28056;51.112;0.984;2023-02-18T12:01:27;101345.61;;;10.12;76.65
42411;BME280;28056;51.112;0.984;2023-02-18T12:03:59;101341.92;;;10.44;75.49
42411;BME280;28056;51.112;0.984;2023-02-18T12:06:34;101345.75;;;10.00;77.09
42411;BME280;28056;51.112;0.984;2023-02-18T12:09:11;101347.97;;;10.98;72.92
42411;BME280;28056;51.112;0.984;2023-02-18T12:11:45;101351.28;;;10.85;73.49
42411;BME280;28056;51.112;0.984;2023-02-18T12:14:17;101342.34;;;11.60;71.25
42411;BME280;28056;51.112;0.984;2023-02-18T12:16:56;101344.02;;;11.17;73.46
42411;BME280;28056;51.112;0.984;2023-02-18T12:19:46;101342.09;;;9.81;78.58
42411;BME280;28056;51.112;0.984;2023-02-18T12:22:20;101342.59;;;10.60;76.42
42411;BME280;28056;51.112;0.984;2023-02-18T12:25:02;101344.04;;;10.49;75.34
42411;BME280;28056;51.112;0.984;2023-02-18T12:27:37;101341.29;;;9.83;78.53
42411;BME280;28056;51.112;0.984;2023-02-18T12:30:25;101336.47;;;10.46;76.61
42411;BME280;28056;51.112;0.984;2023-02-18T12:32:59;101328.69;;;11.51;72.13
42411;BME280;28056;51.112;0.984;2023-02-18T12:35:42;101328.27;;;10.31;75.86
42411;BME280;28056;51.112;0.984;2023-02-18T12:39:36;101330.31;;;10.81;75.22
42411;BME280;28056;51.112;0.984;2023-02-18T12:42:15;101319.49;;;11.52;71.85
42411;BME280;28056;51.112;0.984;2023-02-18T12:45:01;101321.48;;;11.79;72.42
42411;BME280;28056;51.112;0.984;2023-02-18T12:47:48;101321.07;;;11.13;73.64
42411;BME280;28056;51.112;0.984;2023-02-18T12:50:40;101321.74;;;10.92;74.10
42411;BME280;28056;51.112;0.984;2023-02-18T12:53:27;101315.63;;;10.81;74.97
42411;BME280;28056;51.112;0.984;2023-02-18T12:56:08;101308.82;;;10.17;77.66
42411;BME280;28056;51.112;0.984;2023-02-18T12:58:52;101308.55;;;10.33;77.15
42411;BME280;28056;51.112;0.984;2023-02-18T13:01:30;101318.16;;;10.04;78.60
42411;BME280;28056;51.112;0.984;2023-02-18T13:04:17;101312.58;;;10.55;77.44
42411;BME280;28056;51.112;0.984;2023-02-18T13:06:57;101318.10;;;10.29;77.70
42411;BME280;28056;51.112;0.984;2023-02-18T13:09:39;101318.43;;;10.46;77.51
42411;BME280;28056;51.112;0.984;2023-02-18T13:12:13;101313.02;;;9.58;81.55
42411;BME280;28056;51.112;0.984;2023-02-18T13:14:47;101312.80;;;9.30;82.91
42411;BME280;28056;51.112;0.984;2023-02-18T13:17:17;101306.08;;;9.87;84.10
42411;BME280;28056;51.112;0.984;2023-02-18T13:19:49;101301.04;;;10.85;79.42
42411;BME280;28056;51.112;0.984;2023-02-18T13:22:20;101292.42;;;11.35;75.94